Automated Weather Station

Magsaysay, Infanta, Quezon


Readings

as of November 11, 2016 04:01 PM
Wind Speed
3.4 mm
Rainfall Amount
0.14 mm
Rainfall Intensity
11.3 mm
Air Temperature
mm
Wind Direction
96 mm
Air Humidity
97.7 mm

Data Source: PREDICT (Advanced Science and Technology Institute)

12 HOUR DATA

PREVIOUS DATA

From
To
DateTime Wind Speed Rain Amount Rain Intensity Air Temperature Air Pressure Wind Direction Air Humidity
October 19, 2016 10:02 AM 9.9 0 mm 0 23.2 921.64 241 93.3
October 19, 2016 09:01 AM 10.2 0 mm 0 22.9 922.17 212 96.6
October 19, 2016 08:02 AM 5.4 0 mm 0 22.8 922.84 211 96.7
October 19, 2016 07:01 AM 5.7 0 mm 0 22.2 922.97 250 98
October 19, 2016 06:01 AM 11.8 0 mm 0 21.8 922.57 231 98.8
October 19, 2016 04:01 AM 7.8 0 mm 0 21.9 922.7 256 99.3
October 19, 2016 03:01 AM 13.5 0 mm 0 22.2 922.7 217 99.3
October 19, 2016 02:01 AM 7.2 0 mm 0 22.2 922.97 274 99.3
October 19, 2016 01:03 AM 6.6 0 mm 0 22.4 923.37 245 99.2
October 18, 2016 11:01 PM 0 0 mm 0 22.1 925.24 0 97.5
October 18, 2016 10:01 PM 5.6 0 mm 0 22.2 926.3 251 96.7
October 18, 2016 09:01 PM 3.1 0 mm 0 22 926.43 337 96.8
October 18, 2016 08:02 PM 2.4 0 mm 0 21.6 926.3 275 99
October 18, 2016 07:01 PM 0 0 mm 0 22.3 925.63 0 99.2
October 18, 2016 06:02 PM 0 0 mm 0 22.5 925.5 0 99.1
October 18, 2016 05:01 PM 1.1 0.52 mm 35.6 22.8 925.1 184 98.3
October 18, 2016 04:01 PM 1.9 0 mm 0 23.5 924.43 345 98.5
October 18, 2016 03:01 PM 5.1 0 mm 0 23.8 924.43 94 97.4
October 18, 2016 02:01 PM 5 0 mm 0 24.4 924.04 82 97.3
October 18, 2016 01:46 PM 4.7 0 mm 0 24.1 924.43 98 97.7
October 18, 2016 01:01 PM 4.7 0 mm 0 24.8 925.5 136 91.2
October 18, 2016 12:16 PM 7.1 0 mm 0 25.1 926.57 91 94.5
October 18, 2016 12:01 PM 6.3 0.01 mm 1.2 25 928.03 105 90.2
October 18, 2016 11:46 AM 2.7 0 mm 0 26.4 926.57 114 88.3
October 18, 2016 11:01 AM 4.1 0 mm 0 25.8 926.84 25 89.9
October 18, 2016 10:46 AM 7.3 0 mm 0 25.6 926.43 89 89.4
October 18, 2016 10:31 AM 5.5 0 mm 0 25 926.43 107 90.3
October 18, 2016 10:01 AM 0 0 mm 0 24.4 926.97 0 94.5
October 18, 2016 09:02 AM 6.2 0.01 mm 0.8 24.4 928.83 108 93.1
October 18, 2016 08:01 AM 3.7 0 mm 0 25.8 929.77 67 83.2